Portada
METAR-TAF:

METAR-TAF

Aeropuertos :

Aeropuerto de Baie-Comeau

Baie-Comeau, Quebec, Canadá

latitud: 49-08N, longitud: 068-12W, altitud: 21 m

Observación

El informe se hizo hace 20 minutos, a las 01:00 UTC
Viento 3 kt del noroeste
Temperatura 2°C
Humedad 80%
Presión 1037 hPa
Visibilidad: 14.5 km
Cielo despejado

METAR: CYBC 250100Z AUTO 31003KT 9SM CLR 02/M01 A3062 RMK SLP371

Hora: 21:20 (01:20 UTC)

Pronóstico

El informe se hizo hace 5 horas y 42 minutos, a las 19:38 UTC
Pronóstico válido del 24 a las 20 UTC al 25 a las 08 UTC
Viento 12 kt del oeste-suroeste
Visibilidad: 10 km
Cielo despejado
Evolucionando progresivamente
del 25 a las 00 UTC al 25 a las 02 UTC
Viento 3 kt con dirección variable
A partir de las 25 a las 0500 UTC
Viento 8 kt del este-sureste
Visibilidad: 10 km
Cielo nuboso a una altura de 12000 ft

TAF: CYBC 241938Z 2420/2508 24012KT P6SM SKC BECMG 2500/2502 VRB03KT FM250500 11008KT P6SM BKN120 RMK FCST BASED ON AUTO OBS. NXT FCST BY 250200Z

Observaciones y pronósticos meteorológicos de más de 4000 aeropuertos (mensajes METAR y TAF).

Los puntos amarillos y rojos representan las estaciones disponibles.

Ponga el ratón en el punto deseado para ver el nombre de la estación.

Haga clic para ver las observaciones y los pronósticos meteorológicos.

Para cambiar el mapa : haga clic en los botones verdes con una cruz de color negro para hacer un zoom, en el botón verde con un guión para alejar o en las flechas verdes para mapas adyacentes.


METAR-TAF: